Time;durP1;ratioP1;P1;durP2;ratioP2;P2;SDS_P1;SDS_P2;PMS_P1;PMS_P2;Temp;Humidity;BMP_temperature;BMP_pressure;BME280_temperature;BME280_humidity;BME280_pressure;Samples;Min_cycle;Max_cycle;Signal;HPM_P1;HPM_P2
2021/11/27 00:00:42;;;;;;;14.57;2.40;;;;;;;3.75;69.31;99683.84;5014053;28;20073;-81
2021/11/27 00:03:10;;;;;;;23.30;3.50;;;;;;;3.75;69.04;99703.81;5018979;28;20049;-82
2021/11/27 00:05:39;;;;;;;14.50;2.72;;;;;;;3.75;68.95;99703.00;5016890;28;20050;-83
2021/11/27 00:08:08;;;;;;;17.77;3.28;;;;;;;3.78;68.71;99711.38;5011706;28;20057;-82
2021/11/27 00:10:36;;;;;;;10.32;3.58;;;;;;;3.80;68.51;99702.84;5013072;28;20481;-82
2021/11/27 00:13:05;;;;;;;9.57;2.88;;;;;;;3.81;68.37;99708.00;5013406;28;20080;-82
2021/11/27 00:15:34;;;;;;;13.07;2.42;;;;;;;3.81;68.43;99727.16;5003801;28;20484;-82
2021/11/27 00:18:02;;;;;;;16.30;3.17;;;;;;;3.79;67.69;99715.72;5014196;28;20067;-81
2021/11/27 00:20:34;;;;;;;15.02;2.22;;;;;;;3.79;67.78;99715.72;5017146;28;20038;-81
2021/11/27 00:23:01;;;;;;;14.40;3.85;;;;;;;3.78;68.13;99733.28;5007943;28;20053;-82
2021/11/27 00:25:28;;;;;;;17.50;2.50;;;;;;;3.75;68.19;99727.66;5010346;28;20049;-83
2021/11/27 00:27:55;;;;;;;16.08;2.83;;;;;;;3.73;68.16;99733.47;5015175;28;20044;-82
2021/11/27 00:30:25;;;;;;;14.60;3.42;;;;;;;3.72;67.69;99742.78;5014231;28;20042;-82
2021/11/27 00:32:52;;;;;;;9.88;2.55;;;;;;;3.72;67.71;99725.56;5012723;28;20052;-82
2021/11/27 00:35:19;;;;;;;17.33;2.78;;;;;;;3.71;67.23;99738.44;5015602;28;20591;-83
2021/11/27 00:37:53;;;;;;;10.40;2.58;;;;;;;3.70;66.74;99753.28;5013232;28;21976;-81
2021/11/27 00:40:20;;;;;;;7.45;1.63;;;;;;;3.69;67.01;99751.66;5013137;28;20057;-82
2021/11/27 00:42:47;;;;;;;9.80;2.15;;;;;;;3.67;67.00;99764.84;5013139;28;20096;-81
2021/11/27 00:45:16;;;;;;;14.75;2.20;;;;;;;3.67;66.56;99759.38;5011568;28;20057;-84
2021/11/27 00:47:50;;;;;;;12.63;2.05;;;;;;;3.67;65.90;99765.66;5013387;28;20128;-83
2021/11/27 00:50:19;;;;;;;14.27;3.13;;;;;;;3.67;65.90;99754.72;5013338;28;20065;-79
2021/11/27 00:52:49;;;;;;;8.55;2.13;;;;;;;3.69;65.89;99779.03;5014775;28;20046;-79
2021/11/27 00:55:16;;;;;;;10.65;1.85;;;;;;;3.68;65.27;99775.47;5016617;28;20030;-79
2021/11/27 00:57:45;;;;;;;9.77;1.40;;;;;;;3.68;65.40;99793.81;5013941;28;20059;-79
2021/11/27 01:00:16;;;;;;;8.32;1.77;;;;;;;3.65;64.37;99789.00;5008988;28;20108;-79
2021/11/27 01:02:43;;;;;;;15.60;2.15;;;;;;;3.65;64.99;99792.53;5012544;28;20054;-79
2021/11/27 01:05:11;;;;;;;10.73;2.60;;;;;;;3.64;65.16;99801.06;5017909;28;20365;-79
2021/11/27 01:07:40;;;;;;;9.27;2.75;;;;;;;3.62;64.98;99809.63;5014258;28;20049;-80
2021/11/27 01:10:11;;;;;;;10.98;1.95;;;;;;;3.62;64.95;99827.97;5016392;28;20042;-79
2021/11/27 01:12:39;;;;;;;8.75;2.03;;;;;;;3.62;64.84;99817.84;5016006;28;20052;-79
2021/11/27 01:15:09;;;;;;;4.82;2.25;;;;;;;3.60;64.48;99824.75;5016857;28;20060;-79
2021/11/27 01:17:36;;;;;;;13.73;3.88;;;;;;;3.61;64.20;99831.81;5015314;28;20046;-79
2021/11/27 01:20:05;;;;;;;11.38;2.22;;;;;;;3.61;64.33;99832.63;5012725;28;20060;-79
2021/11/27 01:22:32;;;;;;;23.05;1.83;;;;;;;3.59;63.99;99842.28;5014336;28;20057;-79
2021/11/27 01:24:59;;;;;;;14.05;2.47;;;;;;;3.59;63.72;99850.50;5015516;28;20061;-79
2021/11/27 01:27:27;;;;;;;13.18;1.73;;;;;;;3.58;63.52;99848.88;5014579;28;20038;-79
2021/11/27 01:29:54;;;;;;;4.82;1.55;;;;;;;3.59;62.08;99855.97;5017851;28;20053;-79
2021/11/27 01:32:20;;;;;;;9.88;1.55;;;;;;;3.65;62.23;99860.19;5014537;28;20075;-79
2021/11/27 01:34:49;;;;;;;10.32;2.15;;;;;;;3.66;62.79;99867.25;5015582;28;20508;-79
2021/11/27 01:37:16;;;;;;;13.85;2.03;;;;;;;3.65;62.74;99860.19;5014161;28;20033;-79
2021/11/27 01:39:44;;;;;;;13.80;1.40;;;;;;;3.66;62.64;99859.03;5014978;28;20034;-79
2021/11/27 01:42:12;;;;;;;15.77;1.90;;;;;;;3.61;62.44;99862.75;5014466;28;20065;-79
2021/11/27 01:44:40;;;;;;;7.72;2.50;;;;;;;3.61;62.50;99872.88;5011693;28;20037;-79
2021/11/27 01:47:07;;;;;;;7.50;1.83;;;;;;;3.58;62.51;99866.13;5011901;28;20129;-79
2021/11/27 01:49:34;;;;;;;8.93;2.78;;;;;;;3.56;62.87;99867.56;5015403;28;20111;-79
2021/11/27 01:52:01;;;;;;;6.38;2.15;;;;;;;3.51;62.63;99865.78;5015501;28;20096;-79
2021/11/27 01:54:28;;;;;;;10.50;2.35;;;;;;;3.50;62.74;99868.81;5014872;28;20876;-79
2021/11/27 01:56:58;;;;;;;13.20;2.13;;;;;;;3.50;62.83;99877.84;5013165;28;20042;-79
2021/11/27 01:59:29;;;;;;;14.88;1.98;;;;;;;3.47;62.81;99874.94;5012375;28;20046;-79
2021/11/27 02:01:56;;;;;;;6.75;1.10;;;;;;;3.47;62.89;99885.88;5015529;28;20042;-78
2021/11/27 02:04:26;;;;;;;10.57;1.98;;;;;;;3.45;63.06;99902.63;5013119;28;20057;-79
2021/11/27 02:06:53;;;;;;;14.75;2.35;;;;;;;3.44;63.67;99913.91;5014163;28;20045;-79
2021/11/27 02:09:25;;;;;;;9.90;1.67;;;;;;;3.39;63.75;99923.03;5013285;28;20030;-79
2021/11/27 02:11:53;;;;;;;13.02;3.10;;;;;;;3.38;64.07;99915.97;5016768;28;20134;-79
2021/11/27 02:14:20;;;;;;;8.35;1.42;;;;;;;3.35;64.58;99904.84;5012640;28;20034;-79
2021/11/27 02:16:48;;;;;;;8.90;3.03;;;;;;;3.32;64.48;99898.09;5012174;28;20107;-79
2021/11/27 02:19:15;;;;;;;12.43;1.38;;;;;;;3.30;64.86;99908.56;5013714;28;20535;-79
2021/11/27 02:21:44;;;;;;;12.20;1.38;;;;;;;3.30;64.29;99914.03;5014020;28;20037;-79
2021/11/27 02:24:16;;;;;;;6.55;1.55;;;;;;;3.29;64.61;99904.19;5013035;28;20038;-79
2021/11/27 02:26:44;;;;;;;12.18;1.60;;;;;;;3.26;64.28;99923.16;5013731;28;20037;-79
2021/11/27 02:29:21;;;;;;;10.45;1.80;;;;;;;3.22;64.21;99922.19;5011539;28;20033;-79
2021/11/27 02:31:48;;;;;;;5.20;1.40;;;;;;;3.20;64.80;99925.25;5014589;28;20052;-79
2021/11/27 02:34:16;;;;;;;5.13;1.60;;;;;;;3.19;65.05;99950.97;5013929;28;20458;-79
2021/11/27 02:36:48;;;;;;;4.88;1.13;;;;;;;3.14;64.96;99948.38;5013236;28;20034;-78
2021/11/27 02:39:16;;;;;;;5.95;1.58;;;;;;;3.07;65.44;99940.63;5012934;28;20034;-79
2021/11/27 02:41:43;;;;;;;5.95;1.00;;;;;;;3.06;65.71;99952.72;5012730;28;20050;-79
2021/11/27 02:44:10;;;;;;;6.68;0.75;;;;;;;3.07;65.54;99967.97;5010035;28;20056;-79
2021/11/27 02:46:38;;;;;;;3.00;1.15;;;;;;;3.03;65.76;99975.22;5016186;28;20434;-78
2021/11/27 02:49:06;;;;;;;11.20;3.47;;;;;;;3.03;66.37;99945.13;5015612;28;20061;-79
2021/11/27 02:51:34;;;;;;;8.00;1.58;;;;;;;3.04;66.32;99965.09;5017822;28;20030;-80
2021/11/27 02:54:02;;;;;;;5.32;1.08;;;;;;;3.02;66.57;99962.66;5018224;28;20901;-79
2021/11/27 02:56:29;;;;;;;5.40;0.98;;;;;;;3.05;66.40;99970.22;5015689;28;20045;-79
2021/11/27 02:58:56;;;;;;;5.85;0.88;;;;;;;3.04;66.68;99985.00;5018972;28;20038;-79
2021/11/27 03:01:23;;;;;;;10.85;1.00;;;;;;;3.03;66.67;99999.81;5017990;28;20034;-79
2021/11/27 03:03:50;;;;;;;10.10;2.15;;;;;;;3.06;66.89;99982.78;5019194;28;20077;-79
2021/11/27 03:06:17;;;;;;;5.60;0.80;;;;;;;3.04;66.97;100001.41;5017533;28;20038;-79
2021/11/27 03:08:44;;;;;;;8.60;1.45;;;;;;;3.04;67.09;100003.38;5014160;28;20042;-79
2021/11/27 03:11:11;;;;;;;3.30;0.70;;;;;;;3.02;67.14;100008.31;5020769;28;20095;-79
2021/11/27 03:13:39;;;;;;;5.20;0.93;;;;;;;3.02;67.34;100011.03;5016848;28;20500;-79
2021/11/27 03:16:07;;;;;;;8.25;1.73;;;;;;;3.01;67.58;100013.00;5013961;28;20558;-79
2021/11/27 03:18:34;;;;;;;5.15;1.52;;;;;;;3.02;67.78;100028.25;5016950;28;20038;-79
2021/11/27 03:21:01;;;;;;;5.03;1.20;;;;;;;3.02;67.90;100024.72;5014757;28;20034;-79
2021/11/27 03:23:30;;;;;;;11.13;2.10;;;;;;;2.98;67.89;100027.28;5016682;28;20381;-79
2021/11/27 03:25:57;;;;;;;5.00;1.38;;;;;;;2.96;68.09;100029.53;5016707;28;20478;-79
2021/11/27 03:28:24;;;;;;;10.20;1.30;;;;;;;2.94;68.24;100026.28;5016830;28;20038;-79
2021/11/27 03:30:51;;;;;;;2.15;0.77;;;;;;;2.94;68.77;100037.22;4999226;28;20477;-79
2021/11/27 03:33:18;;;;;;;4.35;1.33;;;;;;;2.93;68.70;100051.22;5014712;28;20120;-79
2021/11/27 03:35:45;;;;;;;6.68;1.05;;;;;;;2.91;68.57;100046.03;5016831;28;20125;-79
2021/11/27 03:38:12;;;;;;;7.32;1.38;;;;;;;2.87;69.19;100036.88;5017364;28;22159;-79
2021/11/27 03:40:40;;;;;;;9.43;1.50;;;;;;;2.87;68.74;100041.50;5014991;28;20069;-79
2021/11/27 03:43:07;;;;;;;4.95;1.27;;;;;;;2.86;68.89;100024.31;5014262;28;20062;-77
2021/11/27 03:45:36;;;;;;;5.50;1.02;;;;;;;2.87;69.13;100047.78;5014731;28;20045;-79
2021/11/27 03:48:06;;;;;;;3.60;0.73;;;;;;;2.87;69.03;100069.66;5013938;28;20662;-79
2021/11/27 03:50:54;;;;;;;7.20;1.10;;;;;;;2.87;68.90;100052.44;5017497;28;20088;-79
2021/11/27 03:53:29;;;;;;;8.30;1.08;;;;;;;2.85;68.96;100071.91;5017372;28;20536;-79
2021/11/27 03:55:59;;;;;;;4.18;1.15;;;;;;;2.86;68.64;100075.47;5015280;28;20040;-79
2021/11/27 03:58:26;;;;;;;10.32;1.13;;;;;;;2.83;68.99;100074.13;5016032;28;20030;-79
2021/11/27 04:00:54;;;;;;;3.38;0.85;;;;;;;2.86;69.04;100073.50;5017181;28;20138;-79
2021/11/27 04:03:22;;;;;;;5.60;0.80;;;;;;;2.87;68.82;100069.66;5014254;28;20099;-79
2021/11/27 04:05:53;;;;;;;7.53;0.80;;;;;;;2.88;68.68;100065.81;5016239;28;20064;-79
2021/11/27 04:08:20;;;;;;;1.38;0.60;;;;;;;2.88;68.56;100082.22;5017158;28;20042;-79
2021/11/27 04:10:48;;;;;;;4.28;1.40;;;;;;;2.90;68.46;100079.97;5016137;28;20034;-79
2021/11/27 04:13:15;;;;;;;0.57;0.20;;;;;;;2.90;68.78;100090.91;5014982;28;20448;-79
2021/11/27 04:15:42;;;;;;;2.03;0.77;;;;;;;2.91;69.01;100095.25;5014570;28;20095;-79
2021/11/27 04:18:09;;;;;;;3.30;1.58;;;;;;;2.91;68.84;100095.25;5012780;28;20049;-79
2021/11/27 04:20:36;;;;;;;6.38;0.75;;;;;;;2.90;69.10;100107.31;5016337;28;20064;-79
2021/11/27 04:23:03;;;;;;;2.22;0.75;;;;;;;2.88;68.82;100114.22;5015325;28;20077;-79
2021/11/27 04:25:30;;;;;;;2.75;0.90;;;;;;;2.88;68.62;100108.75;5014297;28;20049;-79
2021/11/27 04:27:57;;;;;;;3.63;0.73;;;;;;;2.86;68.80;100138.34;5015625;28;20038;-79
2021/11/27 04:30:26;;;;;;;4.60;0.85;;;;;;;2.82;68.98;100116.25;5012964;28;20041;-79
2021/11/27 04:32:54;;;;;;;4.32;1.35;;;;;;;2.81;68.90;100152.91;5015155;28;20050;-78
2021/11/27 04:35:23;;;;;;;3.38;0.57;;;;;;;2.80;69.35;100145.03;4997537;28;20073;-79
2021/11/27 04:37:50;;;;;;;3.33;1.30;;;;;;;2.76;69.25;100144.81;5014678;28;20440;-79
2021/11/27 04:40:19;;;;;;;4.88;0.65;;;;;;;2.75;69.48;100143.22;5014915;28;20053;-79
2021/11/27 04:44:29;;;;;;;4.25;0.68;;;;;;;2.69;69.76;100149.09;5082020;27;20118;-78
2021/11/27 04:46:56;;;;;;;2.03;0.40;;;;;;;2.68;69.42;100151.00;5079107;28;20036;-78
2021/11/27 04:49:22;;;;;;;1.48;1.30;;;;;;;2.66;69.63;100153.25;5114891;27;20040;-78
2021/11/27 04:51:49;;;;;;;1.63;0.20;;;;;;;2.66;69.64;100144.25;5079830;28;20434;-78
2021/11/27 04:54:19;;;;;;;2.28;0.57;;;;;;;2.66;69.33;100156.00;5082637;28;20472;-78
2021/11/27 04:56:46;;;;;;;1.40;0.73;;;;;;;2.65;69.31;100165.28;5113278;27;20044;-78
2021/11/27 04:59:13;;;;;;;2.17;0.32;;;;;;;2.66;69.81;100160.63;5081095;28;20036;-78
2021/11/27 05:01:40;;;;;;;1.95;0.38;;;;;;;2.62;69.36;100176.81;5079734;28;20067;-78
2021/11/27 05:04:07;;;;;;;2.75;0.43;;;;;;;2.61;69.50;100175.22;5080557;28;20150;-78
2021/11/27 05:06:33;;;;;;;8.85;0.80;;;;;;;2.61;69.82;100183.44;5080101;28;20089;-78
2021/11/27 05:09:00;;;;;;;6.05;0.80;;;;;;;2.61;70.21;100188.06;5078723;28;20048;-78
2021/11/27 05:11:27;;;;;;;6.07;1.25;;;;;;;2.58;70.52;100203.16;5080222;28;20048;-78
2021/11/27 05:13:54;;;;;;;2.45;0.40;;;;;;;2.55;70.43;100179.19;5081288;28;20064;-78
2021/11/27 05:16:20;;;;;;;7.55;0.82;;;;;;;2.55;70.77;100189.28;5080356;28;20055;-78
2021/11/27 05:18:47;;;;;;;1.73;0.95;;;;;;;2.54;70.58;100193.97;5078810;28;20040;-77
2021/11/27 05:21:14;;;;;;;2.30;0.50;;;;;;;2.47;71.09;100177.16;5079610;28;20472;-78
2021/11/27 05:23:41;;;;;;;3.40;0.40;;;;;;;2.45;71.56;100198.53;5080217;28;20598;-78
2021/11/27 05:26:07;;;;;;;3.70;1.77;;;;;;;2.43;72.35;100195.28;5080586;28;20041;-78
2021/11/27 05:28:34;;;;;;;2.55;0.55;;;;;;;2.41;72.34;100192.84;5081025;28;20032;-78
2021/11/27 05:31:01;;;;;;;3.35;0.55;;;;;;;2.38;72.62;100204.38;5079219;28;20048;-78
2021/11/27 05:36:18;;;;;;;3.17;0.68;;;;;;;2.36;72.84;100228.47;5079900;28;20040;-78
2021/11/27 05:38:47;;;;;;;3.88;0.80;;;;;;;2.37;72.88;100229.28;5080197;28;20050;-78
2021/11/27 05:41:17;;;;;;;1.65;0.65;;;;;;;2.38;73.24;100233.66;5078824;28;20059;-78
2021/11/27 05:43:44;;;;;;;4.10;0.57;;;;;;;2.38;73.09;100239.09;5078936;28;20047;-78
2021/11/27 05:46:11;;;;;;;1.98;1.13;;;;;;;2.38;72.82;100252.75;5079562;28;20468;-78
2021/11/27 05:48:38;;;;;;;5.05;0.88;;;;;;;2.41;72.32;100252.13;5078615;28;20046;-78
2021/11/27 05:51:06;;;;;;;2.75;0.75;;;;;;;2.42;73.07;100262.78;5077256;28;20076;-78
2021/11/27 05:53:32;;;;;;;3.58;0.90;;;;;;;2.46;72.61;100265.72;5081172;28;20043;-78
2021/11/27 05:55:59;;;;;;;4.43;0.50;;;;;;;2.44;72.84;100262.47;5064502;28;20072;-78
2021/11/27 05:58:26;;;;;;;8.93;1.30;;;;;;;2.46;72.87;100266.50;5065571;28;20059;-78
2021/11/27 06:00:53;;;;;;;4.60;0.80;;;;;;;2.46;72.76;100255.56;5065594;28;20130;-78
2021/11/27 06:03:20;;;;;;;10.20;0.82;;;;;;;2.44;73.18;100262.47;5065533;28;20036;-78
2021/11/27 06:05:47;;;;;;;2.65;0.80;;;;;;;2.43;72.69;100267.13;5066442;28;20392;-78
2021/11/27 06:08:14;;;;;;;9.05;1.02;;;;;;;2.44;72.90;100270.66;5065055;28;20051;-78
2021/11/27 06:10:41;;;;;;;4.95;0.77;;;;;;;2.43;72.98;100264.41;5065423;28;20048;-78
2021/11/27 06:13:07;;;;;;;1.90;1.00;;;;;;;2.40;73.04;100286.84;5064830;28;20087;-78
2021/11/27 06:15:34;;;;;;;4.35;0.60;;;;;;;2.38;72.94;100274.63;5065833;28;20384;-78
2021/11/27 06:18:01;;;;;;;3.35;0.70;;;;;;;2.35;72.97;100295.16;5064403;28;20057;-78
2021/11/27 06:20:28;;;;;;;2.35;0.68;;;;;;;2.35;72.78;100275.22;5066190;28;20121;-78
2021/11/27 06:22:55;;;;;;;3.40;1.10;;;;;;;2.34;73.02;100293.53;5048005;28;20418;-78
2021/11/27 06:25:25;;;;;;;1.75;0.50;;;;;;;2.33;73.18;100293.84;5066602;28;20043;-78
2021/11/27 06:27:52;;;;;;;4.82;0.98;;;;;;;2.33;73.05;100304.75;5066061;28;20048;-78
2021/11/27 06:30:20;;;;;;;18.10;1.88;;;;;;;2.32;73.46;100327.72;5062603;28;20041;-78
2021/11/27 06:32:47;;;;;;;5.10;1.17;;;;;;;2.31;73.08;100318.69;5067240;28;20079;-78
2021/11/27 06:35:14;;;;;;;5.20;1.10;;;;;;;2.31;73.09;100323.34;5065283;28;20049;-78
2021/11/27 06:37:41;;;;;;;7.45;1.65;;;;;;;2.30;73.47;100327.22;5065884;28;20465;-78
2021/11/27 06:40:09;;;;;;;2.72;0.85;;;;;;;2.30;73.19;100327.22;5064161;28;20119;-78
2021/11/27 06:42:36;;;;;;;4.55;0.90;;;;;;;2.28;73.67;100324.75;5066350;28;20048;-78
2021/11/27 06:45:04;;;;;;;11.18;1.20;;;;;;;2.28;73.75;100340.34;5065621;28;20049;-78
2021/11/27 06:47:30;;;;;;;6.97;1.08;;;;;;;2.28;73.73;100345.78;5062837;28;20044;-78
2021/11/27 06:49:57;;;;;;;8.93;1.35;;;;;;;2.28;73.51;100362.19;5064616;28;20033;-78
2021/11/27 06:52:24;;;;;;;7.40;1.25;;;;;;;2.27;73.53;100349.66;5065248;28;20059;-78
2021/11/27 06:54:51;;;;;;;9.13;1.63;;;;;;;2.26;73.58;100357.03;5065687;28;20055;-78
2021/11/27 06:57:22;;;;;;;5.13;1.00;;;;;;;2.24;73.87;100363.91;5064568;28;20043;-78
2021/11/27 06:59:49;;;;;;;6.40;1.20;;;;;;;2.22;73.80;100358.75;5065491;28;20043;-78
2021/11/27 07:02:16;;;;;;;4.35;1.27;;;;;;;2.22;73.56;100368.88;5063899;28;20064;-78
2021/11/27 07:04:43;;;;;;;4.45;1.15;;;;;;;2.18;73.89;100384.22;5063077;28;20093;-78
2021/11/27 07:07:09;;;;;;;5.85;1.50;;;;;;;2.15;74.06;100384.81;5063879;28;20040;-78
2021/11/27 07:09:36;;;;;;;6.25;1.02;;;;;;;2.16;73.98;100394.63;5063755;28;20612;-78
2021/11/27 07:12:03;;;;;;;11.57;1.80;;;;;;;2.18;73.79;100393.22;5064745;28;21588;-78
2021/11/27 07:14:30;;;;;;;3.45;1.58;;;;;;;2.16;74.29;100397.34;5064915;28;20032;-78
2021/11/27 07:16:56;;;;;;;4.72;1.20;;;;;;;2.17;74.00;100401.72;5063145;28;20538;-78
2021/11/27 07:19:23;;;;;;;11.50;2.38;;;;;;;2.13;74.24;100414.34;5065616;28;20046;-78
2021/11/27 07:21:50;;;;;;;4.95;1.38;;;;;;;2.11;73.78;100422.84;5061817;28;20029;-78
2021/11/27 07:24:17;;;;;;;7.43;1.52;;;;;;;2.09;74.04;100419.56;5060568;28;20045;-78
2021/11/27 07:26:43;;;;;;;7.28;1.35;;;;;;;2.09;73.78;100425.03;5061873;28;20403;-78
2021/11/27 07:29:10;;;;;;;4.20;0.95;;;;;;;2.10;73.64;100423.13;5067922;28;20035;-78
2021/11/27 07:31:37;;;;;;;5.28;1.13;;;;;;;2.10;73.58;100431.31;5063371;28;20473;-78
2021/11/27 07:34:03;;;;;;;3.60;0.73;;;;;;;2.12;73.15;100434.56;5063602;28;20071;-78
2021/11/27 07:36:30;;;;;;;3.17;0.80;;;;;;;2.14;73.22;100446.81;5061459;28;20135;-78
2021/11/27 07:39:04;;;;;;;6.00;1.37;;;;;;;2.14;72.95;100444.09;5065348;28;20055;-78
2021/11/27 07:41:30;;;;;;;6.20;1.30;;;;;;;2.16;72.54;100444.59;5063545;28;20291;-78
2021/11/27 07:43:57;;;;;;;3.72;0.73;;;;;;;2.17;72.56;100454.41;5063913;28;20056;-78
2021/11/27 07:46:24;;;;;;;4.00;1.13;;;;;;;2.19;72.04;100454.94;5064073;28;20032;-78
2021/11/27 07:48:51;;;;;;;3.33;0.40;;;;;;;2.21;72.13;100474.56;5065267;28;20043;-78
2021/11/27 07:51:18;;;;;;;7.63;0.93;;;;;;;2.21;71.74;100468.28;5063933;28;20132;-78
2021/11/27 07:53:44;;;;;;;7.53;1.10;;;;;;;2.22;72.02;100478.09;5063397;28;21897;-78
2021/11/27 07:56:12;;;;;;;8.00;1.65;;;;;;;2.19;71.76;100484.16;5064581;28;20040;-78
2021/11/27 07:58:39;;;;;;;6.95;0.70;;;;;;;2.16;71.55;100490.22;5064108;28;20036;-78
2021/11/27 08:01:06;;;;;;;2.25;0.52;;;;;;;2.17;71.45;100497.31;5062932;28;20963;-78
2021/11/27 08:03:34;;;;;;;3.67;0.65;;;;;;;2.21;71.68;100511.97;5065226;28;20037;-78
2021/11/27 08:06:01;;;;;;;4.07;0.90;;;;;;;2.17;71.30;100502.75;5076653;28;20126;-78
2021/11/27 08:08:28;;;;;;;4.25;1.13;;;;;;;2.18;71.73;100515.28;5064635;28;20043;-78
2021/11/27 08:10:55;;;;;;;4.88;1.05;;;;;;;2.14;71.17;100526.00;5063933;28;20051;-78
2021/11/27 08:13:22;;;;;;;5.57;0.70;;;;;;;2.12;71.37;100522.75;5079950;28;20040;-78
2021/11/27 08:15:48;;;;;;;9.02;1.95;;;;;;;2.09;71.55;100534.25;5063983;28;20106;-78
2021/11/27 08:18:15;;;;;;;6.47;0.95;;;;;;;2.08;71.67;100526.38;5061800;28;20055;-78
2021/11/27 08:20:42;;;;;;;6.88;0.90;;;;;;;2.08;71.58;100548.22;5064121;28;20055;-78
2021/11/27 08:23:09;;;;;;;5.40;0.80;;;;;;;2.06;71.42;100531.31;5062817;28;20420;-78
2021/11/27 08:25:36;;;;;;;6.57;0.80;;;;;;;2.04;71.75;100530.81;5063538;28;20040;-78
2021/11/27 08:28:03;;;;;;;9.68;1.70;;;;;;;2.03;71.72;100542.81;5062965;28;20059;-78
2021/11/27 08:30:30;;;;;;;6.65;1.15;;;;;;;2.02;71.95;100544.72;5063507;28;20549;-78
2021/11/27 08:32:57;;;;;;;6.13;0.90;;;;;;;2.02;71.80;100552.91;5064332;28;20174;-78
2021/11/27 08:35:24;;;;;;;5.55;0.82;;;;;;;2.04;71.71;100550.69;5062490;28;20384;-78
2021/11/27 08:37:51;;;;;;;4.57;0.82;;;;;;;2.04;71.45;100547.19;5063742;28;20571;-78
2021/11/27 08:40:18;;;;;;;6.97;1.33;;;;;;;2.06;71.36;100548.50;5064225;28;20037;-78
2021/11/27 08:42:45;;;;;;;7.68;1.40;;;;;;;2.08;71.75;100546.28;5062774;28;20053;-78
2021/11/27 08:45:12;;;;;;;5.05;0.90;;;;;;;2.09;71.60;100544.38;5061992;28;20615;-77
2021/11/27 08:47:40;;;;;;;6.18;1.00;;;;;;;2.08;71.71;100562.69;5063354;28;21020;-78
2021/11/27 08:50:09;;;;;;;7.03;1.52;;;;;;;2.08;71.54;100570.06;5065300;28;20395;-78
2021/11/27 08:52:36;;;;;;;4.80;1.20;;;;;;;2.11;71.07;100569.47;5062824;28;20039;-78
2021/11/27 08:55:03;;;;;;;8.02;0.98;;;;;;;2.15;71.43;100575.94;5062217;28;20048;-78
2021/11/27 08:57:30;;;;;;;7.93;1.40;;;;;;;2.16;71.16;100577.59;5064569;28;20068;-78
2021/11/27 08:59:57;;;;;;;3.60;0.88;;;;;;;2.17;71.31;100580.03;5061130;28;20041;-80
2021/11/27 09:02:24;;;;;;;4.22;1.25;;;;;;;2.20;71.39;100578.63;5062254;28;20048;-78
2021/11/27 09:04:51;;;;;;;7.43;2.17;;;;;;;2.21;71.23;100585.72;5062924;28;21216;-78
2021/11/27 09:07:18;;;;;;;9.32;1.92;;;;;;;2.22;71.44;100582.72;5064431;28;20494;-78
2021/11/27 09:09:47;;;;;;;7.65;1.10;;;;;;;2.24;71.26;100587.88;5046041;28;20086;-78
2021/11/27 09:12:18;;;;;;;13.15;1.55;;;;;;;2.22;71.36;100579.16;5063788;28;20086;-78
2021/11/27 09:14:47;;;;;;;10.48;1.00;;;;;;;2.24;71.61;100599.59;5062524;28;20052;-78
2021/11/27 09:17:13;;;;;;;10.50;3.17;;;;;;;2.26;71.23;100602.03;5063539;28;20803;-78
2021/11/27 09:19:41;;;;;;;5.93;1.20;;;;;;;2.26;71.23;100604.75;5063419;28;20044;-78
2021/11/27 09:22:08;;;;;;;4.90;1.13;;;;;;;2.29;71.85;100631.50;5063510;28;20072;-78
2021/11/27 09:24:40;;;;;;;;;;;;;;;2.26;71.60;100627.44;5062730;28;20037;-78
2021/11/27 09:27:07;;;;;;;7.95;1.73;;;;;;;2.30;71.66;100644.06;5063897;28;19916;-78
2021/11/27 09:29:38;;;;;;;8.57;1.38;;;;;;;2.31;71.91;100627.38;5064241;28;20143;-78
2021/11/27 09:32:09;;;;;;;9.10;1.40;;;;;;;2.39;71.44;100642.28;5066804;28;20102;-78
2021/11/27 09:34:36;;;;;;;8.65;1.35;;;;;;;2.42;71.47;100656.19;5044465;28;20051;-78
2021/11/27 09:37:05;;;;;;;6.88;1.83;;;;;;;2.44;71.45;100662.16;5067626;28;20418;-78
2021/11/27 09:39:33;;;;;;;8.85;1.60;;;;;;;2.47;71.77;100653.38;5066766;28;20387;-78
2021/11/27 09:42:00;;;;;;;4.15;1.02;;;;;;;2.51;71.23;100667.28;5068114;28;20030;-78
2021/11/27 09:44:34;;;;;;;4.55;1.00;;;;;;;2.57;71.14;100660.63;5028344;28;20469;-78
2021/11/27 09:47:04;;;;;;;9.27;1.33;;;;;;;2.61;71.13;100666.31;5038418;28;20037;-78
2021/11/27 09:49:37;;;;;;;7.80;1.63;;;;;;;2.64;71.00;100672.00;5045833;28;20045;-78
2021/11/27 09:52:07;;;;;;;6.70;0.90;;;;;;;2.66;70.80;100675.25;5027944;28;20048;-80
2021/11/27 09:54:34;;;;;;;4.35;0.98;;;;;;;2.71;70.55;100688.84;5046360;28;20092;-80
2021/11/27 09:57:06;;;;;;;5.80;1.20;;;;;;;2.76;70.28;100680.56;5044919;28;20567;-80
2021/11/27 09:59:33;;;;;;;8.77;1.33;;;;;;;2.81;69.79;100688.69;5046111;28;20052;-80
2021/11/27 10:02:04;;;;;;;2.90;0.95;;;;;;;2.88;69.34;100700.09;5045047;28;20118;-79
2021/11/27 10:04:33;;;;;;;6.40;1.42;;;;;;;2.91;69.67;100693.22;5047137;28;20040;-79
2021/11/27 10:07:00;;;;;;;9.68;1.35;;;;;;;2.94;69.60;100689.88;5045404;28;20037;-80
2021/11/27 10:09:27;;;;;;;7.78;1.70;;;;;;;2.95;69.80;100684.13;5046972;28;20876;-80
2021/11/27 10:11:55;;;;;;;5.50;1.08;;;;;;;2.98;69.76;100702.69;5048606;28;20064;-80
2021/11/27 10:14:22;;;;;;;3.63;1.23;;;;;;;3.01;69.91;100693.91;5046031;28;20045;-79
2021/11/27 10:16:58;;;;;;;4.57;1.38;;;;;;;3.04;69.34;100690.53;5044239;28;20067;-79
2021/11/27 10:19:27;;;;;;;4.00;1.42;;;;;;;3.08;69.89;100697.06;5048023;28;20488;-80
2021/11/27 10:22:01;;;;;;;9.50;2.35;;;;;;;3.08;70.00;100713.47;5045541;28;20063;-79
2021/11/27 10:24:31;;;;;;;7.63;1.77;;;;;;;3.11;69.73;100719.44;5046401;28;20116;-79
2021/11/27 10:27:00;;;;;;;4.85;1.17;;;;;;;3.12;70.14;100715.63;5044841;28;20041;-79
2021/11/27 10:29:29;;;;;;;14.35;3.10;;;;;;;3.15;70.12;100715.81;5049272;28;20124;-80
2021/11/27 10:32:12;;;;;;;3.63;1.15;;;;;;;3.17;70.29;100723.75;5045927;28;20754;-79
2021/11/27 10:34:50;;;;;;;2.80;1.00;;;;;;;3.21;70.14;100724.75;5048936;28;20033;-79
2021/11/27 10:37:30;;;;;;;5.82;1.00;;;;;;;3.22;69.84;100707.25;5040355;28;20410;-79
2021/11/27 10:39:57;;;;;;;2.17;0.70;;;;;;;3.28;70.38;100708.81;5046121;28;20029;-80
2021/11/27 10:42:24;;;;;;;11.15;2.75;;;;;;;3.30;69.75;100723.81;5046020;28;20055;-79
2021/11/27 10:44:52;;;;;;;6.57;1.40;;;;;;;3.32;69.52;100726.25;5064187;28;20050;-79
2021/11/27 10:47:21;;;;;;;4.38;1.02;;;;;;;3.35;69.74;100717.44;5066587;28;20094;-80
2021/11/27 10:49:49;;;;;;;4.60;1.30;;;;;;;3.37;69.83;100723.41;5067531;28;20037;-79
2021/11/27 10:52:21;;;;;;;3.63;1.05;;;;;;;3.38;69.17;100717.66;5064008;28;20115;-79
2021/11/27 10:54:56;;;;;;;0.82;0.50;;;;;;;3.40;68.89;100740.06;5066390;28;20047;-79
2021/11/27 10:57:23;;;;;;;3.58;1.00;;;;;;;3.44;69.44;100735.59;5065072;28;20477;-79
2021/11/27 10:59:49;;;;;;;6.00;0.90;;;;;;;3.44;69.11;100729.34;5062998;28;20039;-79
2021/11/27 11:02:17;;;;;;;3.67;0.73;;;;;;;3.47;68.53;100756.09;5045702;28;20719;-79
2021/11/27 11:04:44;;;;;;;4.75;0.90;;;;;;;3.52;68.84;100747.81;5065427;28;20048;-80
2021/11/27 11:07:16;;;;;;;12.63;2.42;;;;;;;3.53;68.64;100763.94;5063730;28;20131;-80
2021/11/27 11:10:04;;;;;;;;;;;;;;;3.51;67.26;100766.16;5050341;28;20127;-79
2021/11/27 11:12:36;;;;;;;3.92;1.98;;;;;;;3.56;68.39;100759.78;5063765;28;19959;-78
2021/11/27 11:15:09;;;;;;;3.83;1.45;;;;;;;3.58;68.73;100763.03;5064341;28;20059;-79
2021/11/27 11:17:37;;;;;;;3.35;0.98;;;;;;;3.60;68.45;100777.25;5045902;28;20479;-79
2021/11/27 11:20:41;;;;;;;6.95;1.02;;;;;;;3.63;68.68;100771.16;5065515;28;20130;-79
2021/11/27 11:23:17;;;;;;;6.82;1.58;;;;;;;3.67;68.61;100766.72;5053760;28;20062;-79
2021/11/27 11:25:52;;;;;;;3.85;1.20;;;;;;;3.74;68.49;100771.81;5064958;28;20048;-79
2021/11/27 11:28:20;;;;;;;8.55;1.40;;;;;;;3.81;68.66;100778.56;5066597;28;20370;-79
2021/11/27 11:30:48;;;;;;;20.10;3.88;;;;;;;3.86;68.23;100775.72;5064573;28;20079;-78
2021/11/27 11:33:18;;;;;;;4.72;0.82;;;;;;;3.88;68.61;100781.72;5066042;28;20377;-78
2021/11/27 11:35:46;;;;;;;8.02;1.95;;;;;;;3.86;68.25;100785.88;5065734;28;20041;-79
2021/11/27 11:38:15;;;;;;;4.05;0.65;;;;;;;3.88;68.57;100787.19;5045982;28;20562;-83
2021/11/27 11:40:44;;;;;;;6.20;1.13;;;;;;;3.92;68.02;100779.97;5047079;28;20939;-83
2021/11/27 11:43:11;;;;;;;4.10;0.98;;;;;;;4.05;67.89;100781.16;5080767;28;20492;-80